Time;durP1;ratioP1;P1;durP2;ratioP2;P2;SDS_P1;SDS_P2;PMS_P1;PMS_P2;Temp;Humidity;BMP_temperature;BMP_pressure;BME280_temperature;BME280_humidity;BME280_pressure;Samples;Min_cycle;Max_cycle;Signal;HPM_P1;HPM_P2
2021/03/10 00:00:00;;;;;;;46.80;35.22;;;;;;;;;;5054084;28;20407;-69
2021/03/10 00:02:26;;;;;;;47.92;35.88;;;;;;;;;;5061762;28;20450;-69
2021/03/10 00:04:53;;;;;;;50.33;37.15;;;;;;;;;;5076470;28;20403;-69
2021/03/10 00:07:19;;;;;;;45.57;35.93;;;;;;;;;;5071899;28;20403;-69
2021/03/10 00:09:45;;;;;;;47.08;36.70;;;;;;;;;;5053737;28;20408;-69
2021/03/10 00:12:11;;;;;;;46.45;35.78;;;;;;;;;;5071804;28;20835;-69
2021/03/10 00:14:38;;;;;;;50.70;38.25;;;;;;;;;;5074700;28;20879;-69
2021/03/10 00:17:06;;;;;;;47.55;36.60;;;;;;;;;;5071852;28;20466;-69
2021/03/10 00:19:32;;;;;;;58.80;42.55;;;2.90;99.90;;;;;;5071098;28;20399;-69
2021/03/10 00:21:58;;;;;;;69.30;50.90;;;1.10;99.90;;;;;;5071802;28;20462;-69
2021/03/10 00:24:24;;;;;;;64.05;46.33;;;1.00;99.90;;;;;;5053785;28;20403;-69
2021/03/10 00:26:50;;;;;;;57.47;43.57;;;1.00;99.90;;;;;;5071837;28;20384;-69
2021/03/10 00:29:16;;;;;;;61.22;44.85;;;1.00;99.90;;;;;;5071589;28;20457;-69
2021/03/10 00:31:42;;;;;;;58.97;44.10;;;1.00;99.90;;;;;;5058959;28;20392;-69
2021/03/10 00:34:09;;;;;;;55.17;39.90;;;1.10;99.90;;;;;;5053678;28;20403;-69
2021/03/10 00:36:35;;;;;;;52.35;38.45;;;;;;;;;;5053657;28;20438;-69
2021/03/10 00:39:01;;;;;;;47.45;37.42;;;;;;;;;;5071640;28;20449;-69
2021/03/10 00:41:27;;;;;;;54.17;38.85;;;;;;;;;;5071504;28;20449;-69
2021/03/10 00:43:53;;;;;;;64.15;46.28;;;1.20;99.90;;;;;;5071434;28;21103;-69
2021/03/10 00:46:19;;;;;;;67.95;48.53;;;;;;;;;;5071658;28;20384;-69
2021/03/10 00:48:46;;;;;;;57.83;43.33;;;;;;;;;;5071342;28;20401;-69
2021/03/10 00:51:13;;;;;;;56.47;42.25;;;;;;;;;;5071464;28;20495;-69
2021/03/10 00:53:39;;;;;;;55.95;41.72;;;;;;;;;;5073267;28;20397;-68
2021/03/10 00:56:05;;;;;;;57.33;42.97;;;;;;;;;;5058331;28;20400;-69
2021/03/10 00:58:32;;;;;;;61.25;44.05;;;;;;;;;;5057359;28;20400;-69
2021/03/10 01:00:58;;;;;;;60.55;44.25;;;;;;;;;;5064042;28;20437;-69
2021/03/10 01:03:24;;;;;;;55.40;41.20;;;;;;;;;;5074562;28;20921;-69
2021/03/10 01:05:50;;;;;;;52.38;39.70;;;;;;;;;;5075064;28;20407;-69
2021/03/10 01:08:17;;;;;;;55.88;41.67;;;;;;;;;;5075155;28;20783;-69
2021/03/10 01:10:46;;;;;;;51.53;40.42;;;;;;;;;;5074964;28;20431;-70
2021/03/10 01:13:12;;;;;;;58.92;43.83;;;;;;;;;;5060672;28;20395;-69
2021/03/10 01:15:38;;;;;;;52.33;39.30;;;;;;;;;;5075154;28;20514;-69
2021/03/10 01:18:04;;;;;;;53.15;39.45;;;;;;;;;;5075100;28;20901;-69
2021/03/10 01:20:31;;;;;;;49.47;36.75;;;;;;;;;;5075162;28;20751;-68
2021/03/10 01:22:57;;;;;;;50.03;38.40;;;;;;;;;;5056799;28;20490;-69
2021/03/10 01:25:25;;;;;;;48.67;37.50;;;;;;;;;;5074906;28;20402;-69
2021/03/10 01:27:51;;;;;;;52.25;40.22;;;;;;;;;;5056731;28;20412;-69
2021/03/10 01:30:18;;;;;;;50.27;36.67;;;;;;;;;;5074966;28;20553;-69
2021/03/10 01:32:44;;;;;;;49.63;38.00;;;;;;;;;;5056939;28;20396;-69
2021/03/10 01:35:11;;;;;;;52.08;39.75;;;;;;;;;;5078390;28;20953;-69
2021/03/10 01:37:38;;;;;;;59.88;43.72;;;;;;;;;;5074817;28;20420;-69
2021/03/10 01:40:05;;;;;;;51.05;38.30;;;;;;;;;;5074528;28;20419;-69
2021/03/10 01:42:33;;;;;;;48.03;35.22;;;;;;;;;;5074647;28;20411;-69
2021/03/10 01:44:59;;;;;;;47.80;34.80;;;;;;;;;;5074355;28;20397;-69
2021/03/10 01:47:25;;;;;;;46.22;33.38;;;;;;;;;;5074625;28;20483;-69
2021/03/10 01:49:51;;;;;;;40.58;31.13;;;;;;;;;;5056450;28;20400;-69
2021/03/10 01:52:18;;;;;;;43.05;32.15;;;;;;;;;;5074315;28;20396;-69
2021/03/10 01:54:44;;;;;;;42.28;32.17;;;;;;;;;;5056466;28;20449;-69
2021/03/10 01:57:10;;;;;;;46.72;34.55;;;;;;;;;;5070874;28;20759;-69
2021/03/10 01:59:38;;;;;;;50.20;37.92;;;;;;;;;;5076414;28;20813;-69
2021/03/10 02:02:04;;;;;;;46.90;34.60;;;;;;;;;;5094097;22;20438;-72
2021/03/10 02:04:30;;;;;;;45.35;33.38;;;;;;;;;;5074036;28;20422;-73
2021/03/10 02:07:00;;;;;;;45.10;32.55;;;;;;;;;;5078884;28;20401;-72
2021/03/10 02:09:30;;;;;;;44.72;34.58;;;;;;;;;;5075229;28;20470;-73
2021/03/10 02:12:02;;;;;;;43.67;32.87;;;;;;;;;;5079853;28;20436;-73
2021/03/10 02:14:31;;;;;;;45.67;34.45;;;;;;;;;;5072097;28;20486;-72
2021/03/10 02:16:59;;;;;;;42.75;32.67;;;;;;;;;;5073869;28;20457;-73
2021/03/10 02:19:44;;;;;;;52.30;36.75;;;;;;;;;;5073547;28;20901;-73
2021/03/10 02:22:21;;;;;;;46.63;34.13;;;;;;;;;;5058131;28;20406;-73
2021/03/10 02:24:57;;;;;;;46.08;33.15;;;;;;;;;;5073113;28;20901;-73
2021/03/10 02:27:32;;;;;;;48.70;35.63;;;;;;;;;;5073680;28;20397;-72
2021/03/10 02:30:01;;;;;;;55.08;40.08;;;;;;;;;;5070880;28;20415;-73
2021/03/10 02:32:28;;;;;;;57.08;40.40;;;;;;;;;;5073546;28;20396;-71
2021/03/10 02:34:54;;;;;;;54.08;39.47;;;;;;;;;;5072333;28;20462;-72
2021/03/10 02:37:21;;;;;;;49.45;35.72;;;;;;;;;;5073834;28;20399;-72
2021/03/10 02:39:47;;;;;;;49.13;35.90;;;;;;;;;;5073376;28;20479;-72
2021/03/10 02:42:13;;;;;;;47.08;35.65;;;;;;;;;;5073566;28;20415;-73
2021/03/10 02:44:41;;;;;;;55.57;40.23;;;;;;;;;;5073385;28;20446;-72
2021/03/10 02:47:07;;;;;;;56.40;42.00;;;;;;;;;;5073306;28;20411;-73
2021/03/10 02:49:33;;;;;;;64.20;45.35;;;;;;;;;;5055287;28;20887;-72
2021/03/10 02:52:01;;;;;;;54.97;39.60;;;;;;;;;;5073143;28;20407;-73
2021/03/10 02:54:27;;;;;;;53.53;38.20;;;;;;;;;;5055458;28;20400;-73
2021/03/10 02:56:54;;;;;;;57.38;40.78;;;;;;;;;;5055123;28;20754;-73
2021/03/10 02:59:20;;;;;;;58.45;41.28;;;;;;;;;;5073176;28;20423;-71
2021/03/10 03:01:47;;;;;;;54.13;39.08;;;;;;;;;;5063790;28;20408;-70
2021/03/10 03:04:13;;;;;;;58.08;39.50;;;;;;;;;;5073136;28;20465;-71
2021/03/10 03:06:39;;;;;;;61.15;42.70;;;;;;;;;;5072943;28;20391;-71
2021/03/10 03:09:06;;;;;;;55.10;38.70;;;;;;;;;;5072755;28;20396;-72
2021/03/10 03:11:32;;;;;;;62.05;43.85;;;;;;;;;;5073063;28;20494;-71
2021/03/10 03:14:02;;;;;;;55.15;39.45;;;;;;;;;;5071523;28;20431;-71
2021/03/10 03:16:29;;;;;;;51.60;37.15;;;;;;;;;;5072971;28;20441;-71
2021/03/10 03:18:56;;;;;;;52.15;36.70;;;;;;;;;;5072641;28;20406;-71
2021/03/10 03:21:22;;;;;;;57.13;40.53;;;;;;;;;;5072812;28;20400;-71
2021/03/10 03:23:51;;;;;;;51.58;36.75;;;;;;;;;;5072631;28;20415;-72
2021/03/10 03:26:18;;;;;;;53.63;37.88;;;;;;;;;;5070647;28;20391;-71
2021/03/10 03:28:44;;;;;;;50.22;36.53;;;;;;;;;;5071488;28;20403;-71
2021/03/10 03:31:13;;;;;;;47.80;35.00;;;;;;;;;;5070956;28;20483;-71
2021/03/10 03:33:39;;;;;;;50.50;36.75;;;;;;;;;;5071330;28;20391;-72
2021/03/10 03:36:08;;;;;;;49.57;36.57;;;;;;;;;;5072070;28;20466;-71
2021/03/10 03:38:34;;;;;;;50.78;37.90;;;;;;;;;;5071317;28;20494;-71
2021/03/10 03:41:01;;;;;;;58.83;41.97;;;;;;;;;;5072288;28;20469;-71
2021/03/10 03:43:28;;;;;;;70.93;47.50;;;;;;;;;;5072301;28;20443;-72
2021/03/10 03:45:54;;;;;;;67.10;46.58;;;;;;;;;;5071003;28;20736;-71
2021/03/10 03:48:20;;;;;;;68.22;47.03;;;;;;;;;;5072229;28;20482;-71
2021/03/10 03:50:47;;;;;;;58.03;41.17;;;;;;;;;;5072260;28;20391;-71
2021/03/10 03:53:14;;;;;;;52.65;38.00;;;;;;;;;;5072876;28;20473;-64
2021/03/10 03:55:40;;;;;;;51.67;37.38;;;;;;;;;;5070952;28;20411;-64
2021/03/10 03:58:07;;;;;;;52.22;38.05;;;;;;;;;;5072441;28;20457;-71
2021/03/10 04:00:33;;;;;;;50.80;36.55;;;;;;;;;;5073338;28;20399;-71
2021/03/10 04:02:59;;;;;;;51.45;36.88;;;;;;;;;;5092037;28;20414;-71
2021/03/10 04:05:26;;;;;;;45.60;34.05;;;;;;;;;;5092311;28;20394;-71
2021/03/10 04:07:53;;;;;;;43.28;31.60;;;;;;;;;;5073972;28;20406;-71
2021/03/10 04:10:21;;;;;;;44.78;33.13;;;;;;;;;;5072349;28;20398;-71
2021/03/10 04:12:47;;;;;;;42.00;30.73;;;;;;;;;;5092138;28;20398;-71
2021/03/10 04:15:15;;;;;;;41.40;29.90;;;;;;;;;;5091370;28;20469;-71
2021/03/10 04:17:41;;;;;;;41.37;29.83;;;;;;;;;;5099193;28;20408;-71
2021/03/10 04:20:11;;;;;;;37.40;27.95;;;;;;;;;;5093666;28;20400;-71
2021/03/10 04:22:37;;;;;;;44.97;32.25;;;;;;;;;;5091641;28;20414;-71
2021/03/10 04:25:05;;;;;;;46.40;33.27;;;-0.30;99.90;;;;;;5092037;28;20394;-72
2021/03/10 04:27:32;;;;;;;40.80;30.65;;;-0.10;99.90;;;;;;5091280;28;20390;-71
2021/03/10 04:29:58;;;;;;;41.38;29.52;;;-0.20;99.90;;;;;;5091960;28;20413;-70
2021/03/10 04:32:24;;;;;;;36.88;25.92;;;-0.10;99.90;;;;;;5091666;28;20378;-71
2021/03/10 04:34:51;;;;;;;33.67;24.83;;;-0.10;99.90;;;;;;5091966;28;20453;-72
2021/03/10 04:37:16;;;;;;;27.63;19.42;;;0.00;99.90;;;;;;5073597;28;20394;-71
2021/03/10 04:39:42;;;;;;;20.38;15.80;;;0.00;99.90;;;;;;5091830;28;20413;-71
2021/03/10 04:42:09;;;;;;;15.25;10.98;;;;;;;;;;5073700;28;20410;-72
2021/03/10 04:44:36;;;;;;;6.80;4.65;;;;;;;;;;5091837;28;20393;-71
2021/03/10 04:47:02;;;;;;;4.57;2.97;;;;;;;;;;5091836;28;20467;-71
2021/03/10 04:49:29;;;;;;;4.65;3.03;;;;;;;;;;5073542;28;20809;-71
2021/03/10 04:51:55;;;;;;;4.72;2.70;;;;;;;;;;5091800;28;20791;-71
2021/03/10 04:54:21;;;;;;;5.03;2.83;;;;;;;;;;5091738;28;20390;-71
2021/03/10 04:56:47;;;;;;;5.10;2.72;;;;;;;;;;5091726;28;20390;-71
2021/03/10 04:59:13;;;;;;;4.70;2.22;;;;;;;;;;5091822;28;20401;-71
2021/03/10 05:01:40;;;;;;;4.47;2.20;;;;;;;;;;5091215;28;20406;-71
2021/03/10 05:04:07;;;;;;;4.70;2.60;;;;;;;;;;5090959;28;20410;-72
2021/03/10 05:06:33;;;;;;;4.00;2.58;;;;;;;;;;5073383;28;20398;-71
2021/03/10 05:08:59;;;;;;;4.18;2.42;;;;;;;;;;5070074;28;20404;-71
2021/03/10 05:11:25;;;;;;;4.27;2.40;;;;;;;;;;5089641;28;20798;-72
2021/03/10 05:13:51;;;;;;;5.07;2.42;;;;;;;;;;5090924;28;20914;-71
2021/03/10 05:16:18;;;;;;;4.28;2.60;;;;;;;;;;5073420;28;20756;-71
2021/03/10 05:18:45;;;;;;;5.93;2.42;;;;;;;;;;5091587;28;20396;-71
2021/03/10 05:21:11;;;;;;;3.80;2.42;;;;;;;;;;5072146;28;20405;-72
2021/03/10 05:23:41;;;;;;;29.03;15.87;;;;;;;;;;5091413;28;20418;-72
2021/03/10 05:26:07;;;;;;;22.55;13.30;;;;;;;;;;5072939;28;20477;-72
2021/03/10 05:28:33;;;;;;;10.13;6.72;;;;;;;;;;5073365;28;20425;-72
2021/03/10 05:31:00;;;;;;;8.88;5.72;;;;;;;;;;5091211;28;20405;-72
2021/03/10 05:33:26;;;;;;;7.13;5.07;;;;;;;;;;5091424;28;20390;-72
2021/03/10 05:35:53;;;;;;;7.97;5.80;;;;;;;;;;5073220;28;20410;-72
2021/03/10 05:38:20;;;;;;;13.63;9.87;;;;;;;;;;5073436;28;20934;-72
2021/03/10 05:40:46;;;;;;;6.78;4.72;;;;;;;;;;5094754;28;20402;-72
2021/03/10 05:43:12;;;;;;;6.90;4.85;;;;;;;;;;5076544;28;20831;-71
2021/03/10 05:45:38;;;;;;;6.43;4.00;;;;;;;;;;5094998;28;20886;-72
2021/03/10 05:48:06;;;;;;;5.28;3.63;;;;;;;;;;5097529;28;20392;-72
2021/03/10 05:50:32;;;;;;;16.35;12.18;;;;;;;;;;5094907;28;20386;-72
2021/03/10 05:52:59;;;;;;;16.67;12.52;;;;;;;;;;5094658;28;20390;-71
2021/03/10 05:55:26;;;;;;;14.03;10.73;;;;;;;;;;5094880;28;20422;-72
2021/03/10 05:57:52;;;;;;;15.57;11.45;;;;;;;;;;5076595;28;20439;-72
2021/03/10 06:00:19;;;;;;;19.58;15.23;;;;;;;;;;5070718;28;20404;-71
2021/03/10 06:02:45;;;;;;;21.45;16.20;;;3.70;89.40;;;;;;5094439;28;20449;-71
2021/03/10 06:05:18;;;;;;;21.95;15.48;;;;;;;;;;5094583;28;20824;-71
2021/03/10 06:07:45;;;;;;;14.33;10.40;;;;;;;;;;5089583;28;20466;-71
2021/03/10 06:10:14;;;;;;;12.43;9.50;;;2.50;97.50;;;;;;5094384;28;20397;-72
2021/03/10 06:12:41;;;;;;;12.88;8.60;;;2.10;95.40;;;;;;5077525;28;20957;-71
2021/03/10 06:15:08;;;;;;;13.35;10.20;;;2.20;94.70;;;;;;5093723;28;20476;-71
2021/03/10 06:17:45;;;;;;;10.15;7.18;;;2.40;95.20;;;;;;5093483;28;20423;-74
2021/03/10 06:20:22;;;;;;;9.93;7.18;;;2.40;93.40;;;;;;5091235;28;20386;-72
2021/03/10 06:22:48;;;;;;;11.88;7.55;;;2.50;94.20;;;;;;5093584;28;20492;-72
2021/03/10 06:25:15;;;;;;;8.23;5.72;;;2.50;94.00;;;;;;5094020;28;20386;-72
2021/03/10 06:27:53;;;;;;;10.73;5.57;;;2.50;93.00;;;;;;5075767;28;20401;-72
2021/03/10 06:30:34;;;;;;;6.15;4.22;;;2.70;92.30;;;;;;5094122;28;20505;-72
2021/03/10 06:33:00;;;;;;;6.13;3.60;;;;;;;;;;5093472;28;20471;-72
2021/03/10 06:35:27;;;;;;;9.88;7.70;;;;;;;;;;5093688;28;20869;-72
2021/03/10 06:37:53;;;;;;;12.05;9.73;;;;;;;;;;5093614;28;20422;-72
2021/03/10 06:40:21;;;;;;;7.93;5.32;;;;;;;;;;5093532;28;20880;-72
2021/03/10 06:42:53;;;;;;;5.32;3.58;;;;;;;;;;5092877;28;20413;-72
2021/03/10 06:45:28;;;;;;;5.45;3.05;;;;;;;;;;5084503;28;20459;-72
2021/03/10 06:47:54;;;;;;;4.93;2.92;;;;;;;;;;5092247;28;20463;-72
2021/03/10 06:50:21;;;;;;;5.45;3.10;;;;;;;;;;5081769;28;20432;-72
2021/03/10 06:52:50;;;;;;;4.65;3.00;;;;;;;;;;5093357;28;20440;-70
2021/03/10 06:55:17;;;;;;;5.20;3.25;;;;;;;;;;5095969;28;20396;-72
2021/03/10 06:57:45;;;;;;;4.70;2.80;;;;;;;;;;5093696;28;20749;-72
2021/03/10 07:00:20;;;;;;;4.78;2.83;;;;;;;;;;5093366;28;20477;-72
2021/03/10 07:02:47;;;;;;;4.22;2.63;;;;;;;;;;5093158;28;20418;-72
2021/03/10 07:05:14;;;;;;;6.80;3.25;;;;;;;;;;5092677;28;20595;-72
2021/03/10 07:07:40;;;;;;;6.57;3.57;;;;;;;;;;5093510;28;20397;-71
2021/03/10 07:10:07;;;;;;;6.55;3.58;;;;;;;;;;5093476;28;20749;-72
2021/03/10 07:12:34;;;;;;;4.75;3.30;;;;;;;;;;5092856;28;20422;-72
2021/03/10 07:15:02;;;;;;;5.40;3.33;;;;;;;;;;5078150;28;20401;-72
2021/03/10 07:17:28;;;;;;;5.13;3.17;;;;;;;;;;5092901;28;20455;-71
2021/03/10 07:19:54;;;;;;;4.78;2.70;;;;;;;;;;5080790;28;20420;-71
2021/03/10 07:22:22;;;;;;;5.37;3.40;;;;;;;;;;5079811;28;20472;-71
2021/03/10 07:24:49;;;;;;;5.43;3.07;;;;;;;;;;5091229;28;20443;-71
2021/03/10 07:27:16;;;;;;;8.52;3.15;;;;;;;;;;5092948;28;20398;-71
2021/03/10 07:29:43;;;;;;;3.23;2.13;;;;;;;;;;5092920;28;20443;-71
2021/03/10 07:32:10;;;;;;;5.73;2.70;;;;;;;;;;5085949;28;20389;-71
2021/03/10 07:34:37;;;;;;;4.97;2.60;;;;;;;;;;5091403;28;20765;-72
2021/03/10 07:37:11;;;;;;;3.77;2.40;;;;;;;;;;5068219;28;20837;-72
2021/03/10 07:39:39;;;;;;;3.42;2.10;;;6.80;67.00;;;;;;5091667;28;20459;-71
2021/03/10 07:42:10;;;;;;;2.88;2.00;;;6.80;67.60;;;;;;5091627;28;20390;-72
2021/03/10 07:44:36;;;;;;;3.63;1.92;;;;;;;;;;5090904;28;20876;-71
2021/03/10 07:47:05;;;;;;;5.15;2.45;;;7.10;66.50;;;;;;5090694;28;20394;-71
2021/03/10 07:49:33;;;;;;;3.70;2.20;;;;;;;;;;5090682;28;20482;-72
2021/03/10 07:52:07;;;;;;;3.37;1.87;;;;;;;;;;5091412;28;20421;-71
2021/03/10 07:54:35;;;;;;;3.90;1.90;;;8.00;60.00;;;;;;5091384;28;20394;-72
2021/03/10 07:57:05;;;;;;;5.43;3.47;;;;;;;;;;5090915;28;20390;-71
2021/03/10 07:59:31;;;;;;;11.47;6.90;;;8.50;61.00;;;;;;5090538;28;20777;-72
2021/03/10 08:02:00;;;;;;;8.93;6.55;;;8.60;66.50;;;;;;5077571;28;20455;-72
2021/03/10 08:04:26;;;;;;;11.25;7.80;;;8.50;67.70;;;;;;5078908;28;20959;-72
2021/03/10 08:06:53;;;;;;;12.65;9.80;;;8.80;68.10;;;;;;5091595;28;20480;-72
2021/03/10 08:09:21;;;;;;;21.13;16.92;;;8.90;70.40;;;;;;5091453;28;20386;-72
2021/03/10 08:11:49;;;;;;;19.45;15.95;;;9.00;80.70;;;;;;5085483;28;20985;-71
2021/03/10 08:14:17;;;;;;;22.27;16.90;;;8.60;81.70;;;;;;5083940;28;20398;-72
2021/03/10 08:16:47;;;;;;;20.50;14.80;;;8.10;87.70;;;;;;5091791;28;20390;-72
2021/03/10 08:19:18;;;;;;;18.90;15.33;;;8.20;86.90;;;;;;5049298;28;20406;-72
2021/03/10 08:21:48;;;;;;;21.95;15.70;;;8.40;87.00;;;;;;5086888;28;20386;-71
2021/03/10 08:24:16;;;;;;;19.83;15.90;;;8.40;87.40;;;;;;5085392;28;20900;-71
2021/03/10 08:26:49;;;;;;;20.17;17.05;;;8.50;89.00;;;;;;5088326;28;21609;-72
2021/03/10 08:29:19;;;;;;;23.27;18.55;;;8.60;90.60;;;;;;5087441;28;20477;-71
2021/03/10 08:31:47;;;;;;;25.08;19.52;;;9.00;90.80;;;;;;5087392;28;20409;-71
2021/03/10 08:34:14;;;;;;;27.25;22.85;;;9.10;91.10;;;;;;5066835;28;20757;-71
2021/03/10 08:36:40;;;;;;;28.98;22.70;;;9.00;91.70;;;;;;5066523;28;20407;-71
2021/03/10 08:39:08;;;;;;;30.17;23.42;;;9.00;92.00;;;;;;5066631;28;20426;-70
2021/03/10 08:41:45;;;;;;;25.90;20.88;;;9.00;91.60;;;;;;5089355;28;20386;-72
2021/03/10 08:44:11;;;;;;;30.90;23.50;;;;;;;;;;5088790;28;20444;-71
2021/03/10 08:46:38;;;;;;;29.05;24.02;;;9.30;94.20;;;;;;5088741;28;20393;-71
2021/03/10 08:49:15;;;;;;;29.33;23.73;;;9.40;91.10;;;;;;5089161;28;20393;-71
2021/03/10 08:51:40;;;;;;;31.48;24.50;;;9.80;93.00;;;;;;5066337;28;20399;-71
2021/03/10 08:54:07;;;;;;;30.30;23.60;;;9.80;93.20;;;;;;5083265;28;20398;-71
2021/03/10 08:56:33;;;;;;;26.20;21.08;;;9.80;92.00;;;;;;5066017;28;20400;-70
2021/03/10 08:58:59;;;;;;;24.98;20.13;;;10.10;99.90;;;;;;5089301;28;20820;-71
2021/03/10 09:01:26;;;;;;;28.65;21.48;;;;;;;;;;5065723;28;20473;-71
2021/03/10 09:03:52;;;;;;;21.30;17.53;;;;;;;;;;5088970;28;21039;-70
2021/03/10 09:06:20;;;;;;;20.95;15.48;;;10.30;83.60;;;;;;5089204;28;20401;-72
2021/03/10 09:08:46;;;;;;;21.70;17.38;;;10.20;78.40;;;;;;5088871;28;20397;-71
2021/03/10 09:11:17;;;;;;;21.08;16.00;;;10.20;80.60;;;;;;5089191;28;20389;-71
2021/03/10 09:13:43;;;;;;;20.08;15.30;;;10.20;80.40;;;;;;5089496;28;20505;-72
2021/03/10 09:16:11;;;;;;;20.53;15.77;;;10.30;76.70;;;;;;5092863;28;20394;-71
2021/03/10 09:18:37;;;;;;;19.50;15.18;;;10.40;76.80;;;;;;5092638;28;20405;-72
2021/03/10 09:21:03;;;;;;;20.60;15.67;;;10.40;77.10;;;;;;5093179;28;20872;-71
2021/03/10 09:23:31;;;;;;;21.65;16.55;;;10.50;79.00;;;;;;5091158;28;20467;-70
2021/03/10 09:25:57;;;;;;;21.13;17.80;;;10.60;75.70;;;;;;5092772;28;20480;-71
2021/03/10 09:28:32;;;;;;;24.37;19.60;;;10.70;80.60;;;;;;5092372;28;20390;-70
2021/03/10 09:30:58;;;;;;;26.98;19.77;;;10.80;80.20;;;;;;5092843;28;20389;-71
2021/03/10 09:33:26;;;;;;;25.40;18.45;;;10.40;78.90;;;;;;5092843;28;20722;-72
2021/03/10 09:35:54;;;;;;;23.67;17.95;;;10.30;79.60;;;;;;5090769;28;20958;-71
2021/03/10 09:38:21;;;;;;;22.33;16.92;;;10.60;80.90;;;;;;5092895;28;21118;-71
2021/03/10 09:40:51;;;;;;;24.02;15.98;;;10.80;76.20;;;;;;5068559;28;20993;-71
2021/03/10 09:43:20;;;;;;;19.40;13.88;;;10.70;75.10;;;;;;5092952;28;20414;-71
2021/03/10 09:45:47;;;;;;;19.63;13.27;;;10.60;72.90;;;;;;5092629;28;20396;-71
2021/03/10 09:48:15;;;;;;;15.68;11.93;;;10.80;70.60;;;;;;5090946;28;20415;-70
2021/03/10 09:50:44;;;;;;;18.33;12.65;;;10.90;65.80;;;;;;5091705;28;20429;-72
2021/03/10 09:53:17;;;;;;;13.98;10.55;;;11.00;68.00;;;;;;5068150;28;20459;-71
2021/03/10 09:55:44;;;;;;;13.38;9.55;;;11.10;63.80;;;;;;5069289;28;20404;-71
2021/03/10 09:58:11;;;;;;;14.00;10.38;;;11.10;59.30;;;;;;5068371;28;20409;-70
2021/03/10 10:00:38;;;;;;;14.47;10.60;;;11.10;62.30;;;;;;5089880;28;20402;-71
2021/03/10 10:03:05;;;;;;;12.82;9.10;;;11.30;60.90;;;;;;5090438;28;20573;-70
2021/03/10 10:05:34;;;;;;;13.15;10.13;;;11.30;57.90;;;;;;5086164;28;21007;-71
2021/03/10 10:08:03;;;;;;;14.68;10.55;;;11.30;62.00;;;;;;5091349;28;20880;-71
2021/03/10 10:10:29;;;;;;;17.30;13.02;;;11.50;61.20;;;;;;5068333;28;20434;-70
2021/03/10 10:12:56;;;;;;;13.85;10.77;;;11.40;63.90;;;;;;5070233;28;20489;-70
2021/03/10 10:15:25;;;;;;;13.93;11.27;;;11.50;61.30;;;;;;5091461;28;20389;-70
2021/03/10 10:17:53;;;;;;;16.58;12.25;;;11.50;63.90;;;;;;5090683;28;20890;-70
2021/03/10 10:20:23;;;;;;;17.80;13.63;;;12.00;64.10;;;;;;5091865;28;20439;-71
2021/03/10 10:22:49;;;;;;;16.90;13.13;;;12.10;65.20;;;;;;5067599;28;20942;-70
2021/03/10 10:25:17;;;;;;;17.52;13.02;;;12.40;65.70;;;;;;5091450;28;20484;-70
2021/03/10 10:27:43;;;;;;;16.35;12.88;;;12.40;62.20;;;;;;5067822;28;20428;-70
2021/03/10 10:30:13;;;;;;;17.10;12.97;;;12.10;63.00;;;;;;5067994;28;20463;-70
2021/03/10 10:32:39;;;;;;;18.00;13.48;;;12.20;63.20;;;;;;5091515;28;20382;-71
2021/03/10 10:35:07;;;;;;;16.13;12.68;;;12.20;63.40;;;;;;5068352;28;20406;-70
2021/03/10 10:37:33;;;;;;;17.58;12.93;;;;;;;;;;5091172;28;20394;-69
2021/03/10 10:39:59;;;;;;;16.65;12.27;;;13.10;60.40;;;;;;5091894;28;20394;-70
2021/03/10 10:42:26;;;;;;;16.27;12.07;;;13.20;60.00;;;;;;5068412;28;20493;-71
2021/03/10 10:44:53;;;;;;;18.27;12.90;;;13.10;58.50;;;;;;5091273;28;20534;-70
2021/03/10 10:47:19;;;;;;;16.13;11.95;;;13.20;58.60;;;;;;5091879;28;20881;-70
2021/03/10 10:49:45;;;;;;;16.73;12.23;;;12.90;57.90;;;;;;5071312;28;20394;-70
2021/03/10 10:52:11;;;;;;;17.73;12.77;;;;;;;;;;5091075;28;20390;-70
2021/03/10 10:54:37;;;;;;;18.70;13.33;;;12.40;59.00;;;;;;5090521;28;20440;-70
2021/03/10 10:57:04;;;;;;;18.13;13.43;;;12.40;61.50;;;;;;5091016;28;20889;-71
2021/03/10 10:59:32;;;;;;;17.33;12.70;;;12.30;58.70;;;;;;5091047;28;20390;-70
2021/03/10 11:01:58;;;;;;;17.08;12.35;;;12.60;61.60;;;;;;5091002;28;20770;-71
2021/03/10 11:04:23;;;;;;;17.53;12.73;;;12.90;60.70;;;;;;5090091;28;20410;-71
2021/03/10 11:06:49;;;;;;;16.93;11.73;;;13.10;56.90;;;;;;5090438;28;20493;-72
2021/03/10 11:09:15;;;;;;;15.45;11.48;;;13.10;57.90;;;;;;5089022;28;20493;-71
2021/03/10 11:11:41;;;;;;;16.70;11.93;;;;;;;;;;5088166;28;20403;-70
2021/03/10 11:14:08;;;;;;;15.75;11.57;;;;;;;;;;5089842;28;20406;-70
2021/03/10 11:16:35;;;;;;;17.10;12.27;;;;;;;;;;5090588;28;20467;-70
2021/03/10 11:19:01;;;;;;;16.45;11.60;;;;;;;;;;5089022;28;20425;-69
2021/03/10 11:21:27;;;;;;;15.98;11.50;;;;;;;;;;5089665;28;20428;-70
2021/03/10 11:23:53;;;;;;;18.80;12.77;;;;;;;;;;5090082;28;20422;-73
2021/03/10 11:26:19;;;;;;;16.52;12.13;;;14.00;55.30;;;;;;5073089;28;20417;-70
2021/03/10 11:28:45;;;;;;;15.32;12.07;;;13.40;55.30;;;;;;5068876;28;20398;-70
2021/03/10 11:31:11;;;;;;;14.85;11.02;;;13.10;56.60;;;;;;5090708;28;20394;-71
2021/03/10 11:33:39;;;;;;;16.23;11.87;;;13.40;58.10;;;;;;5090472;28;20433;-70
2021/03/10 11:36:06;;;;;;;15.93;11.55;;;13.40;55.30;;;;;;5072467;28;20467;-70
2021/03/10 11:38:32;;;;;;;17.93;12.17;;;13.80;54.50;;;;;;5089348;28;20753;-71
2021/03/10 11:40:59;;;;;;;15.60;11.30;;;13.60;52.40;;;;;;5090580;28;20968;-70
2021/03/10 11:43:25;;;;;;;17.67;11.90;;;13.60;54.50;;;;;;5090394;28;20442;-71
2021/03/10 11:45:51;;;;;;;15.68;11.23;;;13.50;54.20;;;;;;5064737;28;20402;-71
2021/03/10 11:48:17;;;;;;;16.75;11.85;;;13.60;57.00;;;;;;5090527;28;20436;-71
2021/03/10 11:50:44;;;;;;;16.55;11.90;;;13.30;54.40;;;;;;5089231;28;20454;-70
2021/03/10 11:53:10;;;;;;;16.63;13.00;;;13.30;55.30;;;;;;5089063;28;20884;-70
2021/03/10 11:55:37;;;;;;;16.77;11.38;;;13.40;54.50;;;;;;5088137;28;20391;-70
2021/03/10 11:58:03;;;;;;;18.17;13.20;;;13.50;56.10;;;;;;5088881;28;20424;-70
2021/03/10 12:00:30;;;;;;;16.58;12.88;;;13.90;54.80;;;;;;5086664;28;20456;-69
2021/03/10 12:02:56;;;;;;;18.10;13.73;;;;;;;;;;5088777;28;20501;-69
2021/03/10 12:05:22;;;;;;;20.52;13.95;;;14.20;54.50;;;;;;5067235;28;20765;-70
2021/03/10 12:07:50;;;;;;;20.00;14.48;;;14.00;56.50;;;;;;5086848;28;20422;-70
2021/03/10 12:10:17;;;;;;;19.70;14.63;;;13.90;56.50;;;;;;5088447;28;20390;-70
2021/03/10 12:12:44;;;;;;;21.08;15.35;;;14.00;56.10;;;;;;5066699;28;20398;-70
2021/03/10 12:15:11;;;;;;;21.35;14.93;;;13.80;56.30;;;;;;5089374;28;20390;-70
2021/03/10 12:17:37;;;;;;;20.10;16.03;;;13.80;56.00;;;;;;5086766;28;20406;-70
2021/03/10 12:20:05;;;;;;;20.65;15.77;;;14.10;57.20;;;;;;5089240;28;20477;-69
2021/03/10 12:22:31;;;;;;;20.95;15.63;;;14.00;56.90;;;;;;5089061;28;20390;-71
2021/03/10 12:24:58;;;;;;;23.27;17.25;;;14.20;58.80;;;;;;5069413;28;20909;-70
2021/03/10 12:27:24;;;;;;;22.58;17.60;;;14.20;57.50;;;;;;5077765;28;20437;-70
2021/03/10 12:29:51;;;;;;;21.63;16.80;;;14.20;57.10;;;;;;5089138;28;20418;-70
2021/03/10 12:32:17;;;;;;;23.30;17.58;;;;;;;;;;5036606;28;20467;-70
2021/03/10 12:34:43;;;;;;;22.15;16.42;;;;;;;;;;5039369;28;20403;-70
2021/03/10 12:37:09;;;;;;;21.67;15.93;;;;;;;;;;5019216;28;20797;-70
2021/03/10 12:39:36;;;;;;;22.20;17.05;;;;;;;;;;5037637;28;20438;-70
2021/03/10 12:42:03;;;;;;;23.00;16.83;;;;;;;;;;5018348;28;20411;-71
2021/03/10 12:44:29;;;;;;;20.02;15.68;;;;;;;;;;5038287;28;20415;-70
2021/03/10 12:46:55;;;;;;;19.60;14.97;;;;;;;;;;5037673;28;20408;-71
2021/03/10 12:49:21;;;;;;;19.58;14.45;;;;;;;;;;5019323;28;20401;-70
2021/03/10 12:51:47;;;;;;;20.80;15.75;;;14.10;55.60;;;;;;5039778;28;20418;-70
2021/03/10 12:54:13;;;;;;;18.27;14.45;;;;;;;;;;5020856;28;21048;-70
2021/03/10 12:56:40;;;;;;;18.20;13.80;;;;;;;;;;5039988;28;20429;-70
2021/03/10 12:59:07;;;;;;;20.75;14.77;;;;;;;;;;5023795;28;20464;-70
2021/03/10 13:01:33;;;;;;;19.73;14.00;;;;;;;;;;5040485;28;20409;-70
2021/03/10 13:03:59;;;;;;;19.02;13.27;;;;;;;;;;5042631;28;20903;-70
2021/03/10 13:06:25;;;;;;;18.55;14.43;;;;;;;;;;5041926;28;20424;-70
2021/03/10 13:08:52;;;;;;;19.08;13.82;;;;;;;;;;5025330;28;20469;-71
2021/03/10 13:11:18;;;;;;;19.67;14.32;;;;;;;;;;5020778;28;20761;-71
2021/03/10 13:13:44;;;;;;;18.45;13.75;;;15.30;52.80;;;;;;5034920;28;20395;-70
2021/03/10 13:16:11;;;;;;;15.10;12.45;;;;;;;;;;5033400;28;20391;-71
2021/03/10 13:18:37;;;;;;;16.33;12.65;;;;;;;;;;5034106;28;20410;-70
2021/03/10 13:21:04;;;;;;;17.80;13.40;;;14.70;49.20;;;;;;5034846;28;20429;-71
2021/03/10 13:23:30;;;;;;;19.15;14.00;;;;;;;;;;5029736;28;20422;-71
2021/03/10 13:25:57;;;;;;;17.95;13.10;;;;;;;;;;5031044;28;20898;-71
2021/03/10 13:28:23;;;;;;;17.48;12.68;;;;;;;;;;5011151;28;20467;-71
2021/03/10 13:30:49;;;;;;;15.27;11.95;;;;;;;;;;5031871;28;20398;-71
2021/03/10 13:33:17;;;;;;;16.08;11.68;;;;;;;;;;5029859;28;20391;-70
2021/03/10 13:35:43;;;;;;;16.83;12.93;;;;;;;;;;5039004;28;20537;-72